createdAt,value
2018-12-13T00:01:21.080Z,97.82
2018-12-13T00:03:50.141Z,97.84
2018-12-13T00:06:19.126Z,97.94
2018-12-13T00:08:48.133Z,97.81
2018-12-13T00:11:17.133Z,97.84
2018-12-13T00:13:46.255Z,97.94
2018-12-13T00:16:15.365Z,97.75
2018-12-13T00:18:44.405Z,97.90
2018-12-13T00:21:13.435Z,97.82
2018-12-13T00:23:42.444Z,97.93
2018-12-13T00:26:11.433Z,97.91
2018-12-13T00:28:40.517Z,97.93
2018-12-13T00:31:09.495Z,97.99
2018-12-13T00:33:38.493Z,98.03
2018-12-13T00:36:07.741Z,97.93
2018-12-13T00:38:36.771Z,98.00
2018-12-13T00:41:05.758Z,97.83
2018-12-13T00:43:34.769Z,98.14
2018-12-13T00:46:03.811Z,98.00
2018-12-13T00:48:32.766Z,98.01
2018-12-13T00:51:01.913Z,97.93
2018-12-13T00:53:30.874Z,97.92
2018-12-13T00:55:59.930Z,97.83
2018-12-13T00:58:28.951Z,98.23
2018-12-13T01:01:01.057Z,97.98
2018-12-13T01:03:30.690Z,97.85
2018-12-13T01:05:59.773Z,98.08
2018-12-13T01:08:28.740Z,97.98
2018-12-13T01:10:57.723Z,97.92
2018-12-13T01:13:26.826Z,98.03
2018-12-13T01:15:55.807Z,97.99
2018-12-13T01:18:25.005Z,98.03
2018-12-13T01:20:53.985Z,97.99
2018-12-13T01:23:22.963Z,98.03
2018-12-13T01:25:51.956Z,98.12
2018-12-13T01:28:20.954Z,98.03
2018-12-13T01:30:49.948Z,98.02
2018-12-13T01:33:19.052Z,98.14
2018-12-13T01:35:48.106Z,98.02
2018-12-13T01:38:17.208Z,98.00
2018-12-13T01:40:46.321Z,98.12
2018-12-13T01:43:15.486Z,98.12
2018-12-13T01:45:44.542Z,98.07
2018-12-13T01:48:13.522Z,97.98
2018-12-13T01:50:42.576Z,98.11
2018-12-13T01:53:11.554Z,97.84
2018-12-13T01:55:40.536Z,98.09
2018-12-13T01:58:09.536Z,97.96
2018-12-13T02:00:38.542Z,97.92
2018-12-13T02:03:07.615Z,97.85
2018-12-13T02:05:36.612Z,98.02
2018-12-13T02:08:05.680Z,97.80
2018-12-13T02:10:34.834Z,97.87
2018-12-13T02:13:03.863Z,97.99
2018-12-13T02:15:33.069Z,97.83
2018-12-13T02:18:02.057Z,97.85
2018-12-13T02:20:31.213Z,97.77
2018-12-13T02:23:00.371Z,97.84
2018-12-13T02:25:29.492Z,97.97
2018-12-13T02:27:58.467Z,97.90
2018-12-13T02:30:27.631Z,97.77
2018-12-13T02:32:56.659Z,97.94
2018-12-13T02:35:25.725Z,97.86
2018-12-13T02:37:54.917Z,97.89
2018-12-13T02:40:23.907Z,97.83
2018-12-13T02:42:52.928Z,97.89
2018-12-13T02:45:21.976Z,97.75
2018-12-13T02:47:51.055Z,97.84
2018-12-13T02:50:20.113Z,97.92
2018-12-13T02:52:49.188Z,97.92
2018-12-13T02:55:18.348Z,97.95
2018-12-13T02:57:47.353Z,97.84
2018-12-13T03:00:16.331Z,98.02
2018-12-13T03:02:45.464Z,97.86
2018-12-13T03:05:14.484Z,97.86
2018-12-13T03:07:43.545Z,97.87
2018-12-13T03:10:12.642Z,97.85
2018-12-13T03:12:41.794Z,97.86
2018-12-13T03:15:10.792Z,98.05
2018-12-13T03:17:39.815Z,97.75
2018-12-13T03:20:08.891Z,98.00
2018-12-13T03:22:37.879Z,97.98
2018-12-13T03:25:06.999Z,98.04
2018-12-13T03:27:36.080Z,97.95
2018-12-13T03:30:05.570Z,98.11
2018-12-13T03:32:34.774Z,98.01
2018-12-13T03:35:04.007Z,97.91
2018-12-13T03:37:33.057Z,98.11
2018-12-13T03:40:02.136Z,97.91
2018-12-13T03:42:31.102Z,97.98
2018-12-13T03:45:00.075Z,98.04
2018-12-13T03:47:29.204Z,97.92
2018-12-13T03:49:58.215Z,97.96
2018-12-13T03:52:27.213Z,98.03
2018-12-13T03:54:56.251Z,98.03
2018-12-13T03:57:25.424Z,98.10
2018-12-13T03:59:54.443Z,97.88
2018-12-13T04:02:23.427Z,97.96
2018-12-13T04:04:52.575Z,98.04
2018-12-13T04:07:27.608Z,97.89
2018-12-13T04:09:52.562Z,97.94
2018-12-13T04:12:21.654Z,97.98
2018-12-13T04:14:50.681Z,98.00
2018-12-13T04:17:19.686Z,97.97
2018-12-13T04:19:48.657Z,97.96
2018-12-13T04:22:17.851Z,98.10
2018-12-13T04:24:46.903Z,98.16
2018-12-13T04:27:15.902Z,97.98
2018-12-13T04:29:44.891Z,98.04
2018-12-13T04:32:13.965Z,97.93
2018-12-13T04:34:43.581Z,98.06
2018-12-13T04:37:13.507Z,98.21
2018-12-13T04:39:42.500Z,97.95
2018-12-13T04:42:11.500Z,98.16
2018-12-13T04:44:40.504Z,98.13
2018-12-13T04:47:09.483Z,98.24
2018-12-13T04:49:38.584Z,98.11
2018-12-13T04:52:07.553Z,98.09
2018-12-13T04:54:36.557Z,98.19
2018-12-13T04:57:05.697Z,98.24
2018-12-13T04:59:34.680Z,98.09
2018-12-13T05:02:04.384Z,97.98
2018-12-13T05:04:33.474Z,98.10
2018-12-13T05:07:02.677Z,98.02
2018-12-13T05:09:31.725Z,98.26
2018-12-13T05:12:00.736Z,98.18
2018-12-13T05:14:29.734Z,98.27
2018-12-13T05:16:58.721Z,98.15
2018-12-13T05:19:27.843Z,98.18
2018-12-13T05:21:56.864Z,98.20
2018-12-13T05:24:25.859Z,98.19
2018-12-13T05:26:54.928Z,98.22
2018-12-13T05:29:23.928Z,98.23
2018-12-13T05:31:52.946Z,98.15
2018-12-13T05:34:22.016Z,98.24
2018-12-13T05:36:51.026Z,98.16
2018-12-13T05:39:20.219Z,98.16
2018-12-13T05:41:49.199Z,98.31
2018-12-13T05:44:22.269Z,98.14
2018-12-13T05:46:51.325Z,98.26
2018-12-13T05:49:20.331Z,98.37
2018-12-13T05:51:49.350Z,98.17
2018-12-13T05:54:18.354Z,98.34
2018-12-13T05:56:47.362Z,98.21
2018-12-13T05:59:16.371Z,98.43
2018-12-13T06:01:45.467Z,98.23
2018-12-13T06:04:14.467Z,98.24
2018-12-13T06:06:43.561Z,98.24
2018-12-13T06:09:12.647Z,98.19
2018-12-13T06:11:42.071Z,98.15
2018-12-13T06:14:11.157Z,98.51
2018-12-13T06:16:40.470Z,98.25
2018-12-13T06:19:09.473Z,98.31
2018-12-13T06:21:38.509Z,98.18
2018-12-13T06:24:07.617Z,98.50
2018-12-13T06:26:36.605Z,98.46
2018-12-13T06:29:05.615Z,98.32
2018-12-13T06:31:34.614Z,98.42
2018-12-13T06:34:03.675Z,98.39
2018-12-13T06:36:32.789Z,98.41
2018-12-13T06:39:01.805Z,98.48
2018-12-13T06:41:30.965Z,98.42
2018-12-13T06:44:00.022Z,98.32
2018-12-13T06:46:30.669Z,98.24
2018-12-13T06:48:59.635Z,98.29
2018-12-13T06:51:28.714Z,98.15
2018-12-13T06:53:57.787Z,98.46
2018-12-13T06:56:27.011Z,98.48
2018-12-13T06:58:56.030Z,98.40
2018-12-13T07:01:25.068Z,98.37
2018-12-13T07:03:54.114Z,98.48
2018-12-13T07:06:23.118Z,98.44
2018-12-13T07:08:52.133Z,98.31
2018-12-13T07:11:21.183Z,98.40
2018-12-13T07:13:50.156Z,98.21
2018-12-13T07:16:19.175Z,98.36
2018-12-13T07:18:48.277Z,98.27
2018-12-13T07:21:17.392Z,98.21
2018-12-13T07:23:46.616Z,98.25
2018-12-13T07:26:15.858Z,98.28
2018-12-13T07:28:44.830Z,98.32
2018-12-13T07:31:14.000Z,98.18
2018-12-13T07:33:43.055Z,98.20
2018-12-13T07:36:12.195Z,98.12
2018-12-13T07:38:41.205Z,98.37
2018-12-13T07:41:10.210Z,98.36
2018-12-13T07:43:39.214Z,98.28
2018-12-13T07:46:08.224Z,97.97
2018-12-13T07:48:37.309Z,98.30
2018-12-13T07:51:06.408Z,98.21
2018-12-13T07:53:35.405Z,98.15
2018-12-13T07:56:04.609Z,98.10
2018-12-13T07:58:33.618Z,98.31
2018-12-13T08:01:02.689Z,98.09
2018-12-13T08:03:31.772Z,98.28
2018-12-13T08:06:00.831Z,98.15
2018-12-13T08:08:29.915Z,98.21
2018-12-13T08:10:58.885Z,98.01
2018-12-13T08:13:27.877Z,97.89
2018-12-13T08:15:56.927Z,97.95
2018-12-13T08:18:25.905Z,97.89
2018-12-13T08:20:54.978Z,97.71
2018-12-13T08:23:24.023Z,97.82
2018-12-13T08:25:53.063Z,97.31
2018-12-13T08:28:22.158Z,97.54
2018-12-13T08:30:51.149Z,97.40
2018-12-13T08:33:20.148Z,97.20
2018-12-13T08:35:49.335Z,97.09
2018-12-13T08:38:18.399Z,96.94
2018-12-13T08:40:54.202Z,97.22
2018-12-13T08:43:23.246Z,97.07
2018-12-13T08:45:52.279Z,97.06
2018-12-13T08:48:21.279Z,96.87
2018-12-13T08:50:50.341Z,96.92
2018-12-13T08:53:19.339Z,95.87
2018-12-13T08:55:48.371Z,94.27
2018-12-13T08:58:17.426Z,93.12
2018-12-13T09:00:46.440Z,92.86
2018-12-13T09:03:15.517Z,92.85
2018-12-13T09:05:44.518Z,93.00
2018-12-13T09:08:13.526Z,92.96
2018-12-13T09:10:42.513Z,93.10
2018-12-13T09:13:11.542Z,92.46
2018-12-13T09:15:40.506Z,90.19
2018-12-13T09:18:09.474Z,87.62
2018-12-13T09:20:38.492Z,81.81
2018-12-13T09:23:07.611Z,68.76
2018-12-13T09:25:36.666Z,59.87
2018-12-13T09:28:05.642Z,57.17
2018-12-13T09:30:34.716Z,60.22
2018-12-13T09:33:03.853Z,61.32
2018-12-13T09:35:32.920Z,62.63
2018-12-13T09:38:01.927Z,65.18
2018-12-13T09:40:30.920Z,68.98
2018-12-13T09:42:59.934Z,71.27
2018-12-13T09:45:28.904Z,75.80
2018-12-13T09:47:57.899Z,79.43
2018-12-13T09:50:26.953Z,81.70
2018-12-13T09:52:55.955Z,82.89
2018-12-13T09:55:24.945Z,83.34
2018-12-13T09:57:53.930Z,83.55
2018-12-13T10:00:22.941Z,83.69
2018-12-13T10:02:51.929Z,83.89
2018-12-13T10:05:20.976Z,83.12
2018-12-13T10:07:50.042Z,82.27
2018-12-13T10:10:19.169Z,81.57
2018-12-13T10:12:48.233Z,80.79
2018-12-13T10:15:17.311Z,81.18
2018-12-13T10:17:46.967Z,81.63
2018-12-13T10:20:15.981Z,81.41
2018-12-13T10:22:45.005Z,82.59
2018-12-13T10:25:14.061Z,82.12
2018-12-13T10:27:43.135Z,82.27
2018-12-13T10:30:12.105Z,81.40
2018-12-13T10:32:41.260Z,81.68
2018-12-13T10:35:11.535Z,82.44
2018-12-13T10:37:40.821Z,83.07
2018-12-13T10:40:10.027Z,83.57
2018-12-13T10:42:39.145Z,83.62
2018-12-13T10:45:08.417Z,83.20
2018-12-13T10:47:37.655Z,82.76
2018-12-13T10:50:07.781Z,83.11
2018-12-13T10:52:36.970Z,83.28
2018-12-13T10:55:06.415Z,83.64
2018-12-13T10:57:35.416Z,83.98
2018-12-13T11:00:07.318Z,84.75
2018-12-13T11:02:51.968Z,85.29
2018-12-13T11:05:21.061Z,85.08
2018-12-13T11:07:50.100Z,85.65
2018-12-13T11:10:25.273Z,85.68
2018-12-13T11:12:50.130Z,85.79
2018-12-13T11:15:19.206Z,86.38
2018-12-13T11:17:48.213Z,86.80
2018-12-13T11:20:17.187Z,87.01
2018-12-13T11:22:46.188Z,87.26
2018-12-13T11:25:15.202Z,86.95
2018-12-13T11:28:24.713Z,86.49
2018-12-13T11:30:53.774Z,86.17
2018-12-13T11:33:22.767Z,86.10
2018-12-13T11:35:51.766Z,86.26
2018-12-13T11:38:20.742Z,86.34
2018-12-13T11:40:49.812Z,86.37
2018-12-13T11:43:18.882Z,85.93
2018-12-13T11:45:47.938Z,85.90
2018-12-13T11:48:16.918Z,85.79
2018-12-13T11:50:46.050Z,85.81
2018-12-13T11:53:15.230Z,85.90
2018-12-13T11:55:44.299Z,85.57
2018-12-13T11:58:15.207Z,85.29
2018-12-13T12:00:44.198Z,85.56
2018-12-13T12:03:13.316Z,85.83
2018-12-13T12:05:42.394Z,86.03
2018-12-13T12:08:11.360Z,85.93
2018-12-13T12:10:40.430Z,86.56
2018-12-13T12:13:09.410Z,86.83
2018-12-13T12:15:38.514Z,87.51
2018-12-13T12:18:07.613Z,87.79
2018-12-13T12:20:36.598Z,87.64
2018-12-13T12:23:05.618Z,87.61
2018-12-13T12:25:34.627Z,87.66
2018-12-13T12:28:03.755Z,87.60
2018-12-13T12:30:32.765Z,87.47
2018-12-13T12:33:01.799Z,87.70
2018-12-13T12:35:30.809Z,87.44
2018-12-13T12:37:59.810Z,87.97
2018-12-13T12:40:28.988Z,88.12
2018-12-13T12:42:58.861Z,88.28
2018-12-13T12:45:27.861Z,88.32
2018-12-13T12:47:56.944Z,88.42
2018-12-13T12:50:25.960Z,88.53
2018-12-13T12:52:54.976Z,88.92
2018-12-13T12:55:24.057Z,88.86
2018-12-13T12:57:53.038Z,88.97
2018-12-13T13:00:22.064Z,88.87
2018-12-13T13:02:51.343Z,88.88
2018-12-13T13:05:20.411Z,89.13
2018-12-13T13:07:49.536Z,89.33
2018-12-13T13:10:18.533Z,89.22
2018-12-13T13:12:47.655Z,89.38
2018-12-13T13:15:16.638Z,89.57
2018-12-13T13:17:45.624Z,89.41
2018-12-13T13:20:14.633Z,89.58
2018-12-13T13:22:43.609Z,89.67
2018-12-13T13:25:19.312Z,89.67
2018-12-13T13:27:48.293Z,89.91
2018-12-13T13:30:17.364Z,90.00
2018-12-13T13:32:46.369Z,90.45
2018-12-13T13:35:15.356Z,90.54
2018-12-13T13:37:44.421Z,90.51
2018-12-13T13:40:13.455Z,90.74
2018-12-13T13:42:42.525Z,90.69
2018-12-13T13:45:11.782Z,90.76
2018-12-13T13:47:40.767Z,90.71
2018-12-13T13:50:09.907Z,90.73
2018-12-13T13:52:38.905Z,90.72
2018-12-13T13:55:08.033Z,90.78
2018-12-13T13:57:37.201Z,90.93
2018-12-13T14:00:06.987Z,91.09
2018-12-13T14:02:36.318Z,91.17
2018-12-13T14:05:05.471Z,90.99
2018-12-13T14:07:34.583Z,91.15
2018-12-13T14:10:04.041Z,91.31
2018-12-13T14:12:33.166Z,91.62
2018-12-13T14:15:02.275Z,91.78
2018-12-13T14:17:31.240Z,91.73
2018-12-13T14:20:00.403Z,91.96
2018-12-13T14:22:29.419Z,92.01
2018-12-13T14:24:58.633Z,92.30
2018-12-13T14:27:27.824Z,92.17
2018-12-13T14:29:56.901Z,92.35
2018-12-13T14:32:25.908Z,92.36
2018-12-13T14:34:57.565Z,92.51
2018-12-13T14:37:25.880Z,92.58
2018-12-13T14:39:54.987Z,92.57
2018-12-13T14:42:23.990Z,92.60
2018-12-13T14:44:53.059Z,92.71
2018-12-13T14:47:22.052Z,92.94
2018-12-13T14:49:51.060Z,92.88
2018-12-13T14:52:20.067Z,93.21
2018-12-13T14:54:49.116Z,93.26
2018-12-13T14:57:18.259Z,93.46
2018-12-13T14:59:47.943Z,93.48
2018-12-13T15:02:17.029Z,93.44
2018-12-13T15:04:46.633Z,93.67
2018-12-13T15:07:15.723Z,93.83
2018-12-13T15:09:50.678Z,93.67
2018-12-13T15:12:15.813Z,93.63
2018-12-13T15:14:44.923Z,93.64
2018-12-13T15:17:14.125Z,93.62
2018-12-13T15:19:43.128Z,93.57
2018-12-13T15:22:12.098Z,93.79
2018-12-13T15:24:41.239Z,93.63
2018-12-13T15:27:10.231Z,93.80
2018-12-13T15:29:39.339Z,93.53
2018-12-13T15:32:08.458Z,93.81
2018-12-13T15:34:37.526Z,93.58
2018-12-13T15:37:06.595Z,93.50
2018-12-13T15:39:35.699Z,93.63
2018-12-13T15:42:04.894Z,93.56
2018-12-13T15:44:33.971Z,93.27
2018-12-13T15:47:02.987Z,93.13
2018-12-13T15:49:32.417Z,93.33
2018-12-13T15:52:01.434Z,92.77
2018-12-13T15:54:30.504Z,92.77
2018-12-13T15:56:59.523Z,92.54
2018-12-13T15:59:28.841Z,92.57
2018-12-13T16:01:57.866Z,92.55
2018-12-13T16:04:26.878Z,92.37
2018-12-13T16:06:55.941Z,92.21
2018-12-13T16:09:25.072Z,92.40
2018-12-13T16:11:54.974Z,92.16
2018-12-13T16:14:23.983Z,92.06
2018-12-13T16:16:54.066Z,92.16
2018-12-13T16:19:23.290Z,92.11
2018-12-13T16:21:52.299Z,92.31
2018-12-13T16:24:21.389Z,92.14
2018-12-13T16:26:50.381Z,92.31
2018-12-13T16:29:19.402Z,92.28
2018-12-13T16:31:48.756Z,92.56
2018-12-13T16:34:17.867Z,92.46
2018-12-13T16:36:46.891Z,92.36
2018-12-13T16:39:15.873Z,92.21
2018-12-13T16:41:45.255Z,92.15
2018-12-13T16:44:14.241Z,92.23
2018-12-13T16:46:43.538Z,92.25
2018-12-13T16:49:12.619Z,92.35
2018-12-13T16:51:41.696Z,92.29
2018-12-13T16:54:10.748Z,92.28
2018-12-13T16:56:39.890Z,92.49
2018-12-13T16:59:08.883Z,92.61
2018-12-13T17:01:37.940Z,92.57
2018-12-13T17:04:07.013Z,92.52
2018-12-13T17:06:36.039Z,92.62
2018-12-13T17:09:06.835Z,92.39
2018-12-13T17:11:35.968Z,92.46
2018-12-13T17:14:05.002Z,92.20
2018-12-13T17:16:33.996Z,92.28
2018-12-13T17:19:03.165Z,92.38
2018-12-13T17:21:32.202Z,92.26
2018-12-13T17:24:01.309Z,92.35
2018-12-13T17:26:30.529Z,92.10
2018-12-13T17:28:59.578Z,92.15
2018-12-13T17:31:28.640Z,92.04
2018-12-13T17:33:57.645Z,92.00
2018-12-13T17:36:26.723Z,92.10
2018-12-13T17:38:55.761Z,92.12
2018-12-13T17:41:24.755Z,92.20
2018-12-13T17:43:53.968Z,92.14
2018-12-13T17:46:22.963Z,92.35
2018-12-13T17:48:52.333Z,92.46
2018-12-13T17:51:21.372Z,92.35
2018-12-13T17:53:50.489Z,92.74
2018-12-13T17:56:19.505Z,92.72
2018-12-13T17:58:48.519Z,92.75
2018-12-13T18:01:17.721Z,92.99
2018-12-13T18:03:46.847Z,92.84
2018-12-13T18:06:16.008Z,92.75
2018-12-13T18:08:45.132Z,92.93
2018-12-13T18:11:14.267Z,92.79
2018-12-13T18:13:43.332Z,93.02
2018-12-13T18:16:12.431Z,92.88
2018-12-13T18:18:41.475Z,92.83
2018-12-13T18:21:10.567Z,92.80
2018-12-13T18:23:39.562Z,92.70
2018-12-13T18:26:08.716Z,92.61
2018-12-13T18:28:37.808Z,92.93
2018-12-13T18:31:06.837Z,92.61
2018-12-13T18:33:35.878Z,92.63
2018-12-13T18:36:04.937Z,92.36
2018-12-13T18:38:33.987Z,92.74
2018-12-13T18:41:03.039Z,92.24
2018-12-13T18:43:32.322Z,92.37
2018-12-13T18:46:04.437Z,92.74
2018-12-13T18:48:33.594Z,92.65
2018-12-13T18:51:03.221Z,92.49
2018-12-13T18:53:32.284Z,92.66
2018-12-13T18:56:01.407Z,92.49
2018-12-13T18:58:30.452Z,92.25
2018-12-13T19:00:59.621Z,92.53
2018-12-13T19:03:28.634Z,92.38
2018-12-13T19:05:57.707Z,92.48
2018-12-13T19:08:26.764Z,92.40
2018-12-13T19:10:56.259Z,92.36
2018-12-13T19:13:25.340Z,92.39
2018-12-13T19:15:54.666Z,92.47
2018-12-13T19:18:23.776Z,92.39
2018-12-13T19:20:52.923Z,92.42
2018-12-13T19:23:22.004Z,92.62
2018-12-13T19:25:51.118Z,92.18
2018-12-13T19:28:20.248Z,91.97
2018-12-13T19:30:49.325Z,92.15
2018-12-13T19:33:19.038Z,92.21
2018-12-13T19:35:48.117Z,92.02
2018-12-13T19:38:17.436Z,91.95
2018-12-13T19:40:48.439Z,92.12
2018-12-13T19:43:18.098Z,91.90
2018-12-13T19:45:47.193Z,91.93
2018-12-13T19:48:16.454Z,91.75
2018-12-13T19:50:46.063Z,91.64
2018-12-13T19:53:15.486Z,91.73
2018-12-13T19:55:44.566Z,91.69
2018-12-13T19:58:13.745Z,91.87
2018-12-13T20:00:42.962Z,91.81
2018-12-13T20:03:12.118Z,91.78
2018-12-13T20:05:41.275Z,91.69
2018-12-13T20:08:10.327Z,91.67
2018-12-13T20:10:40.666Z,91.91
2018-12-13T20:13:09.826Z,91.75
2018-12-13T20:15:38.983Z,91.74
2018-12-13T20:18:08.096Z,91.81
2018-12-13T20:20:37.243Z,91.76
2018-12-13T20:23:06.477Z,91.71
2018-12-13T20:25:35.624Z,91.85
2018-12-13T20:28:04.808Z,91.70
2018-12-13T20:30:33.990Z,91.98
2018-12-13T20:33:03.110Z,92.14
2018-12-13T20:35:32.249Z,92.09
2018-12-13T20:38:01.494Z,92.21
2018-12-13T20:40:30.623Z,92.34
2018-12-13T20:42:59.775Z,92.32
2018-12-13T20:45:29.401Z,92.89
2018-12-13T20:47:58.695Z,93.03
2018-12-13T20:50:27.801Z,92.94
2018-12-13T20:52:56.982Z,93.18
2018-12-13T20:55:26.711Z,93.47
2018-12-13T20:57:56.000Z,93.44
2018-12-13T21:00:25.155Z,93.61
2018-12-13T21:02:54.265Z,93.70
2018-12-13T21:05:23.481Z,93.79
2018-12-13T21:07:54.768Z,93.75
2018-12-13T21:10:23.895Z,93.91
2018-12-13T21:12:53.113Z,93.77
2018-12-13T21:15:22.223Z,93.88
2018-12-13T21:17:51.405Z,94.04
2018-12-13T21:20:20.428Z,93.96
2018-12-13T21:22:49.456Z,93.96
2018-12-13T21:25:18.549Z,93.97
2018-12-13T21:27:48.983Z,94.13
2018-12-13T21:30:19.749Z,94.32
2018-12-13T21:32:49.192Z,94.44
2018-12-13T21:35:18.258Z,94.50
2018-12-13T21:37:47.300Z,94.30
2018-12-13T21:40:16.409Z,94.36
2018-12-13T21:42:46.846Z,94.48
2018-12-13T21:45:15.893Z,94.40
2018-12-13T21:47:45.685Z,94.51
2018-12-13T21:50:16.005Z,94.32
2018-12-13T21:52:46.429Z,94.34
2018-12-13T21:55:15.466Z,94.31
2018-12-13T21:57:44.489Z,94.25
2018-12-13T22:00:13.665Z,94.34
2018-12-13T22:02:42.667Z,94.10
2018-12-13T22:05:11.703Z,94.35
2018-12-13T22:07:40.746Z,94.35
2018-12-13T22:10:09.821Z,94.27
2018-12-13T22:12:38.904Z,94.47
2018-12-13T22:15:11.634Z,94.49
2018-12-13T22:17:40.712Z,94.40
2018-12-13T22:20:09.917Z,94.64
2018-12-13T22:22:39.029Z,94.50
2018-12-13T22:25:08.380Z,94.52
2018-12-13T22:27:37.413Z,94.50
2018-12-13T22:30:07.484Z,94.54
2018-12-13T22:32:36.473Z,94.54
2018-12-13T22:35:05.621Z,94.57
2018-12-13T22:37:34.595Z,94.60
2018-12-13T22:40:04.055Z,94.66
2018-12-13T22:42:33.258Z,94.83
2018-12-13T22:45:02.248Z,94.64
2018-12-13T22:47:31.357Z,94.67
2018-12-13T22:50:00.514Z,94.60
2018-12-13T22:52:29.516Z,94.73
2018-12-13T22:54:58.525Z,94.84
2018-12-13T22:57:27.629Z,94.80
2018-12-13T22:59:56.626Z,94.94
2018-12-13T23:02:25.727Z,94.69
2018-12-13T23:04:54.805Z,94.92
2018-12-13T23:07:23.938Z,95.06
2018-12-13T23:09:53.053Z,94.98
2018-12-13T23:12:22.194Z,95.19
2018-12-13T23:14:51.245Z,95.13
2018-12-13T23:17:20.499Z,95.25
2018-12-13T23:19:49.620Z,95.20
2018-12-13T23:22:18.603Z,95.25
2018-12-13T23:24:47.651Z,95.30
2018-12-13T23:27:16.659Z,95.18
2018-12-13T23:29:45.654Z,95.49
2018-12-13T23:32:14.728Z,95.39
2018-12-13T23:34:43.839Z,95.34
2018-12-13T23:37:12.919Z,95.32
2018-12-13T23:39:41.898Z,95.48
2018-12-13T23:42:10.873Z,95.58
2018-12-13T23:44:39.989Z,95.45
2018-12-13T23:47:09.122Z,95.52
2018-12-13T23:49:38.166Z,95.55
2018-12-13T23:52:07.175Z,95.55
2018-12-13T23:54:36.142Z,95.65
2018-12-13T23:57:05.189Z,95.62
2018-12-13T23:59:34.181Z,95.88
